createdAt,value
2018-07-04T00:00:18.617Z,80.19
2018-07-04T00:01:18.547Z,80.19
2018-07-04T00:02:18.505Z,80.19
2018-07-04T00:03:18.457Z,79.71
2018-07-04T00:04:18.411Z,80.28
2018-07-04T00:05:18.393Z,80.09
2018-07-04T00:06:18.316Z,79.99
2018-07-04T00:07:18.276Z,79.80
2018-07-04T00:08:18.225Z,79.90
2018-07-04T00:09:18.181Z,79.61
2018-07-04T00:10:18.162Z,79.80
2018-07-04T00:11:18.089Z,80.19
2018-07-04T00:12:18.049Z,79.71
2018-07-04T00:13:17.995Z,79.90
2018-07-04T00:14:17.948Z,80.28
2018-07-04T00:15:17.926Z,79.99
2018-07-04T00:16:17.855Z,80.09
2018-07-04T00:17:17.807Z,79.90
2018-07-04T00:18:17.760Z,79.61
2018-07-04T00:19:17.721Z,79.90
2018-07-04T00:20:17.670Z,79.22
2018-07-04T00:21:17.639Z,78.84
2018-07-04T00:22:17.573Z,78.55
2018-07-04T00:23:17.528Z,78.61
2018-07-04T00:24:17.477Z,79.32
2018-07-04T00:25:17.435Z,79.03
2018-07-04T00:26:17.413Z,78.65
2018-07-04T00:27:17.339Z,78.32
2018-07-04T00:28:17.301Z,78.08
2018-07-04T00:29:17.247Z,78.70
2018-07-04T00:30:17.200Z,78.45
2018-07-04T00:31:17.222Z,77.98
2018-07-04T00:32:17.109Z,78.52
2018-07-04T00:33:17.060Z,77.75
2018-07-04T00:34:17.013Z,77.50
2018-07-04T00:35:16.970Z,78.70
2018-07-04T00:36:16.947Z,78.80
2018-07-04T00:37:16.877Z,78.52
2018-07-04T00:38:16.825Z,78.23
2018-07-04T00:39:16.780Z,78.70
2018-07-04T00:40:16.736Z,77.46
2018-07-04T00:41:16.724Z,78.23
2018-07-04T00:42:16.642Z,78.23
2018-07-04T00:43:16.595Z,78.52
2018-07-04T00:44:16.549Z,78.70
2018-07-04T00:45:16.503Z,78.61
2018-07-04T00:46:16.453Z,78.99
2018-07-04T00:47:16.441Z,78.90
2018-07-04T00:48:16.364Z,78.70
2018-07-04T00:49:16.313Z,78.90
2018-07-04T00:50:16.268Z,80.15
2018-07-04T00:51:16.222Z,79.86
2018-07-04T00:52:16.193Z,79.19
2018-07-04T00:53:16.127Z,79.38
2018-07-04T00:54:16.079Z,79.28
2018-07-04T00:55:16.032Z,78.90
2018-07-04T00:56:15.997Z,78.99
2018-07-04T00:57:15.961Z,79.19
2018-07-04T00:58:15.894Z,79.96
2018-07-04T00:59:15.847Z,80.63
2018-07-04T01:00:15.802Z,80.05
2018-07-04T01:01:15.758Z,81.49
2018-07-04T01:02:15.732Z,80.73
2018-07-04T01:03:15.661Z,82.07
2018-07-04T01:04:15.618Z,80.63
2018-07-04T01:05:15.569Z,80.91
2018-07-04T01:06:15.522Z,80.73
2018-07-04T01:07:15.503Z,80.24
2018-07-04T01:08:15.426Z,79.96
2018-07-04T01:09:15.381Z,79.96
2018-07-04T01:10:15.339Z,80.73
2018-07-04T01:11:15.287Z,80.91
2018-07-04T01:12:15.242Z,80.91
2018-07-04T01:13:15.221Z,80.68
2018-07-04T01:14:15.149Z,80.58
2018-07-04T01:15:15.110Z,81.07
2018-07-04T01:16:15.052Z,80.68
2018-07-04T01:17:15.009Z,80.68
2018-07-04T01:18:14.982Z,81.16
2018-07-04T01:19:14.911Z,82.60
2018-07-04T01:20:14.875Z,81.45
2018-07-04T01:21:14.821Z,81.35
2018-07-04T01:22:14.773Z,81.26
2018-07-04T01:23:14.753Z,81.45
2018-07-04T01:24:14.684Z,80.97
2018-07-04T01:25:14.636Z,80.49
2018-07-04T01:26:14.586Z,80.97
2018-07-04T01:27:14.538Z,80.34
2018-07-04T01:28:14.522Z,80.82
2018-07-04T01:29:14.446Z,80.53
2018-07-04T01:30:14.400Z,81.16
2018-07-04T01:31:14.357Z,80.97
2018-07-04T01:32:14.308Z,81.01
2018-07-04T01:33:14.283Z,82.03
2018-07-04T01:34:14.214Z,81.54
2018-07-04T01:35:14.167Z,81.26
2018-07-04T01:36:14.126Z,82.31
2018-07-04T01:37:14.074Z,82.31
2018-07-04T01:38:14.054Z,82.70
2018-07-04T01:39:13.983Z,82.03
2018-07-04T01:40:13.933Z,82.21
2018-07-04T01:41:13.888Z,81.45
2018-07-04T01:42:13.852Z,81.35
2018-07-04T01:43:13.820Z,82.03
2018-07-04T01:44:13.747Z,81.35
2018-07-04T01:45:13.699Z,81.26
2018-07-04T01:46:13.656Z,80.87
2018-07-04T01:47:13.607Z,82.41
2018-07-04T01:48:13.582Z,82.31
2018-07-04T01:49:13.521Z,84.14
2018-07-04T01:50:13.471Z,84.04
2018-07-04T01:51:13.418Z,83.94
2018-07-04T01:52:13.378Z,82.70
2018-07-04T01:53:13.356Z,83.08
2018-07-04T01:54:13.281Z,85.10
2018-07-04T01:55:13.233Z,83.33
2018-07-04T01:56:13.187Z,83.37
2018-07-04T01:57:13.154Z,84.19
2018-07-04T01:58:13.093Z,83.27
2018-07-04T01:59:13.076Z,83.52
2018-07-04T02:00:13.004Z,84.00
2018-07-04T02:01:12.954Z,84.23
2018-07-04T02:02:12.905Z,85.53
2018-07-04T02:03:12.865Z,86.01
2018-07-04T02:04:12.837Z,85.15
2018-07-04T02:05:12.769Z,85.53
2018-07-04T02:06:12.722Z,84.95
2018-07-04T02:07:19.744Z,86.01
2018-07-04T02:08:12.629Z,85.72
2018-07-04T02:09:12.607Z,85.44
2018-07-04T02:10:12.534Z,85.82
2018-07-04T02:11:12.486Z,84.95
2018-07-04T02:12:12.446Z,86.58
2018-07-04T02:13:12.392Z,86.49
2018-07-04T02:14:12.368Z,85.25
2018-07-04T02:15:12.297Z,82.94
2018-07-04T02:16:12.254Z,83.23
2018-07-04T02:17:12.206Z,83.42
2018-07-04T02:18:12.156Z,82.94
2018-07-04T02:19:12.154Z,82.94
2018-07-04T02:20:12.065Z,83.61
2018-07-04T02:21:12.021Z,82.85
2018-07-04T02:22:11.980Z,82.18
2018-07-04T02:23:11.922Z,81.98
2018-07-04T02:24:11.878Z,82.18
2018-07-04T02:25:11.853Z,82.27
2018-07-04T02:26:11.784Z,82.31
2018-07-04T02:27:11.738Z,81.84
2018-07-04T02:28:11.690Z,81.26
2018-07-04T02:29:11.647Z,81.74
2018-07-04T02:30:11.622Z,82.27
2018-07-04T02:31:11.554Z,82.27
2018-07-04T02:32:11.502Z,82.56
2018-07-04T02:33:11.459Z,82.56
2018-07-04T02:34:11.409Z,82.46
2018-07-04T02:35:11.384Z,82.18
2018-07-04T02:36:11.316Z,82.12
2018-07-04T02:37:11.270Z,81.70
2018-07-04T02:38:11.223Z,82.18
2018-07-04T02:39:11.173Z,83.42
2018-07-04T02:40:11.150Z,83.23
2018-07-04T02:41:11.084Z,83.91
2018-07-04T02:42:11.035Z,82.75
2018-07-04T02:43:10.990Z,83.04
2018-07-04T02:44:10.947Z,82.85
2018-07-04T02:45:10.917Z,83.04
2018-07-04T02:46:10.851Z,83.14
2018-07-04T02:47:10.798Z,83.61
2018-07-04T02:48:10.757Z,84.38
2018-07-04T02:49:10.710Z,84.77
2018-07-04T02:50:10.689Z,83.71
2018-07-04T02:51:10.612Z,82.65
2018-07-04T02:52:10.570Z,83.33
2018-07-04T02:53:10.529Z,83.42
2018-07-04T02:54:10.473Z,83.71
2018-07-04T02:55:10.466Z,84.95
2018-07-04T02:56:10.382Z,84.38
2018-07-04T02:57:10.335Z,83.33
2018-07-04T02:58:10.283Z,83.81
2018-07-04T02:59:10.242Z,83.81
2018-07-04T03:00:10.192Z,83.61
2018-07-04T03:01:10.167Z,83.42
2018-07-04T03:02:10.102Z,83.04
2018-07-04T03:03:10.055Z,84.19
2018-07-04T03:04:10.006Z,84.67
2018-07-04T03:05:09.960Z,84.77
2018-07-04T03:06:09.995Z,84.38
2018-07-04T03:07:09.866Z,83.33
2018-07-04T03:08:09.817Z,83.52
2018-07-04T03:09:09.770Z,84.09
2018-07-04T03:10:09.721Z,83.14
2018-07-04T03:11:09.701Z,83.33
2018-07-04T03:12:09.629Z,83.33
2018-07-04T03:13:09.580Z,83.23
2018-07-04T03:14:09.536Z,83.23
2018-07-04T03:15:09.486Z,84.77
2018-07-04T03:16:09.464Z,84.58
2018-07-04T03:17:09.393Z,84.95
2018-07-04T03:18:09.349Z,84.48
2018-07-04T03:19:09.308Z,83.81
2018-07-04T03:20:09.254Z,84.95
2018-07-04T03:21:09.233Z,85.92
2018-07-04T03:22:09.166Z,84.95
2018-07-04T03:23:09.113Z,85.15
2018-07-04T03:24:09.068Z,84.38
2018-07-04T03:25:09.020Z,84.38
2018-07-04T03:26:09.008Z,84.09
2018-07-04T03:27:08.928Z,84.09
2018-07-04T03:28:08.882Z,84.95
2018-07-04T03:29:08.832Z,84.86
2018-07-04T03:30:08.786Z,85.92
2018-07-04T03:31:08.777Z,85.92
2018-07-04T03:32:08.695Z,85.63
2018-07-04T03:33:08.645Z,85.82
2018-07-04T03:34:08.597Z,86.11
2018-07-04T03:35:08.551Z,87.74
2018-07-04T03:36:08.504Z,87.64
2018-07-04T03:37:08.480Z,87.79
2018-07-04T03:38:15.528Z,86.07
2018-07-04T03:39:08.368Z,85.39
2018-07-04T03:40:08.321Z,85.11
2018-07-04T03:41:08.267Z,85.88
2018-07-04T03:42:08.246Z,86.54
2018-07-04T03:43:08.173Z,87.31
2018-07-04T03:44:08.126Z,89.32
2018-07-04T03:45:08.082Z,89.04
2018-07-04T03:46:08.034Z,88.46
2018-07-04T03:47:08.008Z,87.31
2018-07-04T03:48:07.939Z,86.25
2018-07-04T03:49:07.896Z,86.45
2018-07-04T03:50:07.850Z,86.16
2018-07-04T03:51:07.796Z,85.97
2018-07-04T03:52:07.775Z,89.42
2018-07-04T03:53:07.706Z,89.71
2018-07-04T03:54:07.658Z,89.23
2018-07-04T03:55:07.609Z,89.04
2018-07-04T03:56:07.568Z,89.23
2018-07-04T03:57:07.545Z,88.84
2018-07-04T03:58:07.522Z,86.83
2018-07-04T03:59:07.422Z,86.07
2018-07-04T04:00:07.376Z,86.11
2018-07-04T04:01:07.331Z,86.78
2018-07-04T04:02:07.310Z,85.72
2018-07-04T04:03:07.234Z,85.44
2018-07-04T04:04:07.191Z,86.97
2018-07-04T04:05:07.141Z,87.74
2018-07-04T04:06:07.096Z,87.84
2018-07-04T04:07:07.071Z,88.02
2018-07-04T04:08:06.999Z,86.78
2018-07-04T04:09:06.957Z,88.02
2018-07-04T04:10:06.905Z,89.37
2018-07-04T04:11:06.859Z,88.31
2018-07-04T04:12:06.839Z,89.08
2018-07-04T04:13:06.770Z,89.27
2018-07-04T04:14:06.720Z,89.27
2018-07-04T04:15:06.673Z,89.47
2018-07-04T04:16:06.623Z,88.22
2018-07-04T04:17:06.619Z,88.79
2018-07-04T04:18:06.532Z,88.89
2018-07-04T04:19:06.484Z,89.32
2018-07-04T04:20:06.441Z,89.12
2018-07-04T04:21:06.392Z,88.45
2018-07-04T04:22:06.344Z,88.65
2018-07-04T04:23:06.327Z,86.92
2018-07-04T04:24:06.252Z,87.21
2018-07-04T04:25:06.210Z,87.88
2018-07-04T04:26:06.158Z,88.26
2018-07-04T04:27:06.159Z,87.49
2018-07-04T04:28:06.089Z,87.54
2018-07-04T04:29:06.020Z,88.02
2018-07-04T04:30:05.971Z,87.54
2018-07-04T04:31:05.927Z,84.47
2018-07-04T04:32:05.883Z,86.00
2018-07-04T04:33:05.859Z,86.96
2018-07-04T04:34:05.791Z,86.96
2018-07-04T04:35:05.740Z,85.28
2018-07-04T04:36:05.692Z,84.66
2018-07-04T04:37:05.645Z,85.66
2018-07-04T04:38:05.627Z,85.66
2018-07-04T04:39:05.561Z,85.57
2018-07-04T04:40:05.510Z,85.18
2018-07-04T04:41:05.464Z,85.28
2018-07-04T04:42:05.415Z,85.08
2018-07-04T04:43:05.390Z,81.53
2018-07-04T04:44:05.330Z,84.70
2018-07-04T04:45:05.281Z,81.63
2018-07-04T04:46:05.240Z,83.01
2018-07-04T04:47:05.190Z,83.01
2018-07-04T04:48:05.161Z,85.22
2018-07-04T04:49:05.097Z,83.49
2018-07-04T04:50:05.052Z,85.41
2018-07-04T04:51:05.003Z,86.18
2018-07-04T04:52:04.954Z,85.61
2018-07-04T04:53:04.937Z,84.89
2018-07-04T04:54:04.864Z,86.57
2018-07-04T04:55:04.814Z,85.89
2018-07-04T04:56:04.773Z,85.61
2018-07-04T04:57:04.726Z,84.84
2018-07-04T04:58:04.702Z,84.74
2018-07-04T04:59:04.637Z,86.18
2018-07-04T05:00:04.588Z,85.99
2018-07-04T05:01:04.547Z,85.41
2018-07-04T05:02:04.501Z,84.55
2018-07-04T05:03:04.494Z,83.69
2018-07-04T05:04:04.405Z,82.24
2018-07-04T05:05:04.361Z,83.11
2018-07-04T05:06:04.315Z,83.92
2018-07-04T05:07:04.274Z,84.01
2018-07-04T05:08:04.225Z,79.40
2018-07-04T05:09:04.202Z,77.42
2018-07-04T05:10:04.133Z,77.04
2018-07-04T05:11:04.085Z,76.26
2018-07-04T05:12:04.040Z,75.73
2018-07-04T05:13:03.999Z,75.24
2018-07-04T05:14:03.977Z,74.38
2018-07-04T05:15:03.906Z,74.67
2018-07-04T05:16:03.858Z,73.42
2018-07-04T05:17:03.816Z,74.13
2018-07-04T05:18:03.770Z,72.55
2018-07-04T05:19:03.743Z,71.91
2018-07-04T05:20:03.681Z,71.81
2018-07-04T05:21:03.638Z,72.11
2018-07-04T05:22:03.587Z,72.01
2018-07-04T05:23:03.542Z,72.39
2018-07-04T05:24:03.523Z,72.01
2018-07-04T05:25:03.453Z,72.24
2018-07-04T05:26:03.409Z,71.76
2018-07-04T05:27:03.364Z,71.56
2018-07-04T05:28:03.318Z,70.31
2018-07-04T05:29:03.297Z,68.96
2018-07-04T05:30:03.233Z,68.71
2018-07-04T05:31:03.184Z,69.19
2018-07-04T05:32:03.141Z,70.06
2018-07-04T05:33:03.093Z,70.64
2018-07-04T05:34:03.070Z,70.64
2018-07-04T05:35:03.059Z,69.09
2018-07-04T05:36:02.966Z,68.71
2018-07-04T05:37:02.915Z,69.32
2018-07-04T05:38:02.878Z,69.03
2018-07-04T05:39:02.853Z,69.32
2018-07-04T05:40:02.788Z,68.55
2018-07-04T05:41:02.745Z,68.16
2018-07-04T05:42:02.696Z,67.23
2018-07-04T05:43:02.653Z,67.62
2018-07-04T05:44:02.626Z,66.75
2018-07-04T05:45:02.559Z,66.27
2018-07-04T05:46:02.530Z,65.78
2018-07-04T05:47:02.471Z,65.88
2018-07-04T05:48:02.430Z,64.82
2018-07-04T05:49:02.411Z,64.63
2018-07-04T05:50:02.341Z,65.30
2018-07-04T05:51:02.294Z,65.01
2018-07-04T05:52:02.257Z,65.98
2018-07-04T05:53:02.210Z,66.66
2018-07-04T05:54:02.204Z,67.33
2018-07-04T05:55:02.117Z,67.43
2018-07-04T05:56:02.079Z,65.63
2018-07-04T05:57:02.039Z,64.66
2018-07-04T05:58:01.988Z,64.47
2018-07-04T05:59:01.943Z,64.28
2018-07-04T06:00:01.924Z,62.25
2018-07-04T06:01:01.854Z,62.82
2018-07-04T06:02:01.815Z,62.34
2018-07-04T06:03:01.770Z,62.54
2018-07-04T06:04:01.725Z,63.02
2018-07-04T06:05:01.708Z,63.40
2018-07-04T06:06:01.639Z,63.24
2018-07-04T06:07:01.593Z,62.86
2018-07-04T06:08:01.550Z,62.57
2018-07-04T06:09:08.552Z,61.70
2018-07-04T06:10:01.485Z,61.60
2018-07-04T06:11:01.421Z,61.60
2018-07-04T06:12:01.374Z,61.60
2018-07-04T06:13:01.335Z,61.60
2018-07-04T06:14:01.288Z,61.70
2018-07-04T06:15:01.304Z,61.70
2018-07-04T06:16:01.201Z,61.41
2018-07-04T06:17:01.176Z,61.60
2018-07-04T06:18:01.111Z,61.70
2018-07-04T06:19:01.069Z,61.51
2018-07-04T06:20:01.051Z,61.60
2018-07-04T06:21:00.979Z,61.70
2018-07-04T06:22:00.942Z,62.28
2018-07-04T06:23:00.894Z,61.99
2018-07-04T06:24:00.858Z,64.82
2018-07-04T06:25:00.830Z,62.70
2018-07-04T06:26:00.768Z,62.79
2018-07-04T06:27:00.716Z,62.60
2018-07-04T06:28:00.676Z,62.70
2018-07-04T06:29:00.631Z,62.28
2018-07-04T06:30:00.618Z,61.44
2018-07-04T06:31:00.552Z,64.43
2018-07-04T06:32:00.504Z,62.21
2018-07-04T06:33:00.464Z,61.83
2018-07-04T06:34:00.416Z,62.89
2018-07-04T06:35:00.396Z,62.70
2018-07-04T06:36:00.330Z,63.31
2018-07-04T06:37:00.292Z,64.56
2018-07-04T06:38:00.247Z,63.40
2018-07-04T06:39:00.200Z,63.69
2018-07-04T06:40:00.187Z,62.92
2018-07-04T06:41:00.114Z,61.95
2018-07-04T06:42:00.074Z,64.31
2018-07-04T06:43:00.031Z,61.50
2018-07-04T06:43:59.984Z,60.72
2018-07-04T06:44:59.969Z,60.11
2018-07-04T06:45:59.897Z,60.92
2018-07-04T06:46:59.856Z,62.08
2018-07-04T06:47:59.816Z,62.85
2018-07-04T06:48:59.843Z,60.44
2018-07-04T06:49:59.728Z,61.40
2018-07-04T06:50:59.711Z,61.43
2018-07-04T06:51:59.648Z,62.40
2018-07-04T06:52:59.599Z,61.15
2018-07-04T06:53:59.557Z,59.50
2018-07-04T06:54:59.518Z,59.53
2018-07-04T06:55:59.499Z,60.08
2018-07-04T06:56:59.429Z,58.14
2018-07-04T06:57:59.391Z,59.08
2018-07-04T06:58:59.349Z,60.34
2018-07-04T06:59:59.349Z,61.79
2018-07-04T07:00:59.308Z,59.86
2018-07-04T07:01:59.290Z,60.08
2018-07-04T07:02:59.178Z,58.70
2018-07-04T07:03:59.130Z,58.44
2018-07-04T07:04:59.090Z,58.44
2018-07-04T07:05:59.070Z,58.34
2018-07-04T07:06:59.003Z,58.14
2018-07-04T07:07:58.963Z,58.04
2018-07-04T07:08:58.922Z,58.63
2018-07-04T07:09:58.878Z,59.01
2018-07-04T07:10:58.859Z,59.59
2018-07-04T07:11:58.798Z,59.31
2018-07-04T07:12:58.751Z,59.50
2018-07-04T07:13:58.710Z,58.72
2018-07-04T07:14:58.659Z,58.56
2018-07-04T07:15:58.649Z,59.43
2018-07-04T07:16:58.580Z,57.59
2018-07-04T07:17:58.538Z,57.59
2018-07-04T07:18:58.493Z,56.92
2018-07-04T07:19:58.456Z,56.92
2018-07-04T07:20:58.432Z,57.20
2018-07-04T07:21:58.368Z,57.50
2018-07-04T07:22:58.323Z,57.40
2018-07-04T07:23:58.285Z,56.92
2018-07-04T07:24:58.241Z,57.79
2018-07-04T07:25:58.228Z,58.63
2018-07-04T07:26:58.159Z,58.82
2018-07-04T07:27:58.112Z,58.24
2018-07-04T07:28:58.074Z,58.95
2018-07-04T07:29:58.028Z,59.05
2018-07-04T07:30:57.987Z,58.65
2018-07-04T07:31:57.974Z,58.11
2018-07-04T07:32:57.904Z,58.59
2018-07-04T07:33:57.897Z,61.30
2018-07-04T07:34:57.816Z,58.39
2018-07-04T07:35:57.773Z,58.11
2018-07-04T07:36:57.757Z,56.29
2018-07-04T07:37:57.687Z,57.33
2018-07-04T07:38:57.649Z,58.23
2018-07-04T07:39:57.606Z,59.49
2018-07-04T07:40:57.568Z,59.42
2018-07-04T07:41:57.599Z,58.74
2018-07-04T07:42:57.484Z,58.55
2018-07-04T07:43:57.440Z,59.42
2018-07-04T07:44:57.400Z,57.61
2018-07-04T07:45:57.359Z,55.38
2018-07-04T07:46:57.336Z,57.12
2018-07-04T07:47:57.273Z,57.51
2018-07-04T07:48:57.231Z,54.90
2018-07-04T07:49:57.190Z,55.54
2018-07-04T07:50:57.148Z,55.83
2018-07-04T07:51:57.151Z,56.71
2018-07-04T07:52:57.065Z,56.51
2018-07-04T07:53:57.024Z,56.23
2018-07-04T07:54:56.984Z,55.54
2018-07-04T07:55:56.942Z,57.19
2018-07-04T07:56:56.902Z,57.09
2018-07-04T07:57:56.879Z,57.19
2018-07-04T07:58:56.815Z,57.29
2018-07-04T07:59:56.774Z,57.58
2018-07-04T08:00:56.737Z,56.41
2018-07-04T08:01:56.757Z,57.19
2018-07-04T08:02:56.676Z,57.51
2018-07-04T08:03:56.609Z,59.55
2018-07-04T08:04:56.568Z,58.48
2018-07-04T08:05:56.600Z,55.77
2018-07-04T08:06:56.506Z,56.15
2018-07-04T08:07:56.466Z,55.38
2018-07-04T08:08:56.404Z,54.99
2018-07-04T08:09:56.370Z,55.79
2018-07-04T08:10:56.321Z,55.11
2018-07-04T08:11:56.281Z,54.14
2018-07-04T08:12:56.272Z,54.34
2018-07-04T08:13:56.200Z,55.02
2018-07-04T08:14:56.157Z,56.37
2018-07-04T08:15:56.116Z,55.02
2018-07-04T08:16:56.078Z,55.60
2018-07-04T08:17:56.035Z,55.38
2018-07-04T08:18:56.017Z,55.69
2018-07-04T08:19:55.957Z,56.67
2018-07-04T08:20:55.913Z,56.09
2018-07-04T08:21:55.869Z,55.77
2018-07-04T08:22:55.833Z,57.34
2018-07-04T08:23:55.813Z,57.25
2018-07-04T08:24:55.750Z,57.83
2018-07-04T08:25:55.711Z,57.15
2018-07-04T08:26:55.670Z,54.44
2018-07-04T08:27:55.627Z,54.34
2018-07-04T08:28:55.612Z,54.46
2018-07-04T08:29:55.545Z,56.11
2018-07-04T08:30:55.503Z,55.43
2018-07-04T08:31:55.532Z,53.39
2018-07-04T08:32:55.427Z,53.39
2018-07-04T08:33:55.408Z,53.97
2018-07-04T08:34:55.348Z,53.30
2018-07-04T08:35:55.304Z,53.39
2018-07-04T08:36:55.260Z,54.46
2018-07-04T08:37:55.219Z,54.34
2018-07-04T08:38:55.247Z,53.85
2018-07-04T08:39:55.142Z,53.83
2018-07-04T08:40:55.103Z,56.35
2018-07-04T08:41:55.063Z,56.93
2018-07-04T08:42:55.020Z,58.39
2018-07-04T08:43:55.001Z,59.84
2018-07-04T08:44:54.946Z,57.32
2018-07-04T08:45:54.901Z,54.80
2018-07-04T08:46:54.858Z,53.85
2018-07-04T08:47:54.828Z,53.37
2018-07-04T08:48:54.807Z,53.37
2018-07-04T08:49:54.750Z,53.08
2018-07-04T08:50:54.706Z,52.88
2018-07-04T08:51:54.654Z,53.47
2018-07-04T08:52:54.677Z,53.08
2018-07-04T08:53:54.613Z,53.85
2018-07-04T08:54:54.536Z,53.85
2018-07-04T08:55:54.497Z,55.69
2018-07-04T08:56:54.456Z,54.05
2018-07-04T08:57:54.410Z,54.44
2018-07-04T08:58:54.421Z,56.09
2018-07-04T08:59:54.332Z,54.34
2018-07-04T09:00:54.294Z,54.63
2018-07-04T09:01:54.256Z,53.53
2018-07-04T09:02:54.215Z,53.44
2018-07-04T09:03:54.169Z,53.15
2018-07-04T09:04:54.152Z,53.73
2018-07-04T09:05:54.096Z,55.69
2018-07-04T09:06:54.049Z,57.64
2018-07-04T09:07:54.009Z,54.34
2018-07-04T09:08:53.978Z,54.05
2018-07-04T09:09:53.950Z,53.75
2018-07-04T09:10:53.888Z,54.34
2018-07-04T09:11:53.938Z,53.27
2018-07-04T09:12:53.807Z,52.69
2018-07-04T09:13:53.770Z,53.47
2018-07-04T09:14:53.747Z,50.94
2018-07-04T09:15:53.690Z,53.69
2018-07-04T09:16:53.648Z,55.89
2018-07-04T09:17:53.611Z,54.72
2018-07-04T09:18:53.569Z,52.40
2018-07-04T09:19:53.553Z,52.03
2018-07-04T09:20:53.486Z,53.49
2018-07-04T09:21:53.444Z,53.59
2018-07-04T09:22:53.408Z,53.59
2018-07-04T09:23:53.367Z,52.55
2018-07-04T09:24:53.353Z,52.45
2018-07-04T09:25:53.285Z,52.76
2018-07-04T09:26:53.248Z,53.45
2018-07-04T09:27:53.204Z,52.59
2018-07-04T09:28:53.165Z,51.82
2018-07-04T09:29:53.148Z,48.90
2018-07-04T09:30:53.086Z,48.80
2018-07-04T09:31:53.047Z,48.90
2018-07-04T09:32:53.010Z,49.10
2018-07-04T09:33:52.972Z,51.14
2018-07-04T09:34:52.959Z,51.11
2018-07-04T09:35:52.892Z,52.19
2018-07-04T09:36:52.848Z,52.47
2018-07-04T09:37:52.809Z,51.92
2018-07-04T09:38:52.765Z,52.31
2018-07-04T09:39:52.730Z,52.33
2018-07-04T09:40:52.713Z,52.14
2018-07-04T09:41:52.654Z,51.26
2018-07-04T09:42:52.613Z,50.09
2018-07-04T09:43:52.650Z,50.56
2018-07-04T09:44:52.532Z,50.65
2018-07-04T09:45:52.521Z,52.11
2018-07-04T09:46:52.460Z,52.28
2018-07-04T09:47:52.441Z,53.54
2018-07-04T09:48:52.376Z,55.78
2018-07-04T09:49:52.336Z,54.49
2018-07-04T09:50:52.318Z,54.58
2018-07-04T09:51:52.257Z,55.73
2018-07-04T09:52:52.220Z,53.88
2018-07-04T09:53:52.178Z,55.04
2018-07-04T09:54:52.138Z,57.54
2018-07-04T09:55:52.125Z,57.06
2018-07-04T09:56:52.059Z,59.19
2018-07-04T09:57:52.027Z,58.22
2018-07-04T09:58:52.020Z,58.87
2018-07-04T09:59:51.942Z,58.00
2018-07-04T10:00:51.929Z,59.45
2018-07-04T10:01:51.860Z,58.67
2018-07-04T10:02:51.820Z,56.64
2018-07-04T10:03:51.783Z,55.38
2018-07-04T10:04:51.742Z,54.63
2018-07-04T10:05:51.707Z,53.08
2018-07-04T10:06:51.688Z,53.56
2018-07-04T10:07:51.624Z,53.30
2018-07-04T10:08:51.581Z,52.91
2018-07-04T10:09:51.546Z,52.35
2018-07-04T10:10:51.503Z,51.97
2018-07-04T10:11:51.484Z,51.67
2018-07-04T10:12:51.422Z,52.47
2018-07-04T10:13:51.385Z,54.03
2018-07-04T10:14:51.343Z,54.61
2018-07-04T10:15:51.301Z,53.35
2018-07-04T10:16:51.288Z,52.96
2018-07-04T10:17:51.225Z,53.06
2018-07-04T10:18:51.184Z,53.64
2018-07-04T10:19:51.144Z,55.10
2018-07-04T10:20:51.105Z,54.52
2018-07-04T10:21:51.088Z,55.10
2018-07-04T10:22:51.035Z,54.71
2018-07-04T10:23:50.984Z,54.22
2018-07-04T10:24:50.950Z,54.80
2018-07-04T10:25:50.903Z,51.99
2018-07-04T10:26:50.887Z,52.67
2018-07-04T10:27:50.829Z,54.03
2018-07-04T10:28:50.791Z,52.57
2018-07-04T10:29:50.750Z,53.86
2018-07-04T10:30:50.708Z,51.92
2018-07-04T10:31:50.691Z,52.79
2018-07-04T10:32:50.632Z,51.26
2018-07-04T10:33:50.590Z,51.58
2018-07-04T10:34:50.553Z,53.62
2018-07-04T10:35:50.511Z,53.14
2018-07-04T10:36:50.501Z,52.92
2018-07-04T10:37:50.452Z,50.97
2018-07-04T10:38:50.406Z,54.66
2018-07-04T10:39:50.359Z,55.05
2018-07-04T10:40:50.319Z,55.05
2018-07-04T10:41:50.320Z,54.47
2018-07-04T10:42:50.242Z,56.71
2018-07-04T10:43:50.204Z,56.12
2018-07-04T10:44:50.225Z,50.16
2018-07-04T10:45:50.126Z,50.46
2018-07-04T10:46:50.106Z,50.65
2018-07-04T10:47:50.046Z,49.87
2018-07-04T10:48:50.008Z,47.83
2018-07-04T10:49:49.967Z,49.58
2018-07-04T10:50:49.935Z,49.56
2018-07-04T10:51:49.923Z,50.07
2018-07-04T10:52:49.869Z,50.16
2018-07-04T10:53:49.811Z,47.74
2018-07-04T10:54:49.777Z,45.77
2018-07-04T10:55:49.738Z,45.89
2018-07-04T10:56:49.722Z,46.57
2018-07-04T10:57:49.683Z,46.57
2018-07-04T10:58:49.620Z,49.68
2018-07-04T10:59:49.581Z,50.16
2018-07-04T11:00:49.541Z,47.83
2018-07-04T11:01:49.503Z,47.25
2018-07-04T11:02:49.487Z,45.69
2018-07-04T11:03:49.428Z,46.28
2018-07-04T11:04:49.389Z,47.15
2018-07-04T11:05:49.346Z,46.57
2018-07-04T11:06:49.308Z,48.32
2018-07-04T11:07:49.301Z,48.90
2018-07-04T11:08:49.232Z,46.88
2018-07-04T11:09:49.190Z,47.05
2018-07-04T11:10:49.152Z,45.14
2018-07-04T11:11:49.113Z,43.58
2018-07-04T11:12:49.107Z,46.01
2018-07-04T11:13:49.034Z,46.30
2018-07-04T11:14:48.997Z,46.88
2018-07-04T11:15:48.956Z,46.98
2018-07-04T11:16:49.004Z,42.04
2018-07-04T11:17:48.908Z,41.85
2018-07-04T11:18:48.847Z,47.49
2018-07-04T11:19:48.810Z,47.30
2018-07-04T11:20:48.766Z,47.10
2018-07-04T11:21:48.727Z,43.79
2018-07-04T11:22:48.717Z,45.94
2018-07-04T11:23:48.649Z,40.68
2018-07-04T11:24:48.614Z,41.65
2018-07-04T11:25:48.570Z,42.33
2018-07-04T11:26:48.534Z,43.60
2018-07-04T11:27:48.527Z,41.55
2018-07-04T11:28:48.459Z,42.53
2018-07-04T11:29:48.415Z,44.86
2018-07-04T11:30:48.378Z,45.72
2018-07-04T11:31:48.346Z,41.83
2018-07-04T11:32:48.324Z,42.50
2018-07-04T11:33:48.261Z,43.38
2018-07-04T11:34:48.219Z,41.73
2018-07-04T11:35:48.183Z,42.70
2018-07-04T11:36:48.147Z,42.72
2018-07-04T11:37:48.149Z,41.63
2018-07-04T11:38:48.065Z,43.58
2018-07-04T11:39:48.027Z,45.04
2018-07-04T11:40:47.993Z,44.16
2018-07-04T11:41:47.950Z,42.99
2018-07-04T11:42:47.917Z,42.90
2018-07-04T11:43:47.888Z,42.41
2018-07-04T11:44:47.829Z,39.78
2018-07-04T11:45:47.796Z,40.37
2018-07-04T11:46:47.753Z,40.09
2018-07-04T11:47:47.717Z,41.55
2018-07-04T11:48:47.701Z,39.03
2018-07-04T11:49:47.637Z,39.41
2018-07-04T11:50:47.599Z,39.61
2018-07-04T11:51:47.557Z,41.96
2018-07-04T11:52:47.518Z,41.67
2018-07-04T11:53:47.501Z,41.55
2018-07-04T11:54:47.440Z,42.53
2018-07-04T11:55:47.403Z,42.04
2018-07-04T11:56:47.362Z,42.82
2018-07-04T11:57:47.323Z,44.67
2018-07-04T11:58:47.307Z,42.90
2018-07-04T11:59:47.245Z,44.06
2018-07-04T12:00:47.206Z,45.32
2018-07-04T12:01:47.182Z,42.50
2018-07-04T12:02:47.132Z,43.58
2018-07-04T12:03:47.131Z,43.75
2018-07-04T12:04:47.049Z,46.37
2018-07-04T12:05:47.010Z,44.43
2018-07-04T12:06:46.971Z,43.55
2018-07-04T12:07:46.935Z,43.16
2018-07-04T12:08:46.923Z,44.92
2018-07-04T12:09:46.859Z,44.04
2018-07-04T12:10:46.816Z,41.44
2018-07-04T12:11:46.776Z,42.10
2018-07-04T12:12:46.734Z,42.41
2018-07-04T12:13:46.719Z,45.62
2018-07-04T12:14:46.660Z,44.84
2018-07-04T12:15:46.616Z,42.31
2018-07-04T12:16:46.575Z,42.11
2018-07-04T12:17:46.537Z,48.05
2018-07-04T12:18:46.525Z,46.91
2018-07-04T12:19:46.459Z,46.13
2018-07-04T12:20:46.420Z,45.23
2018-07-04T12:21:46.378Z,44.18
2018-07-04T12:22:46.343Z,43.99
2018-07-04T12:23:46.333Z,43.70
2018-07-04T12:24:46.267Z,42.43
2018-07-04T12:25:46.221Z,44.57
2018-07-04T12:26:46.315Z,45.15
2018-07-04T12:27:46.141Z,47.10
2018-07-04T12:28:46.107Z,42.33
2018-07-04T12:29:46.089Z,40.68
2018-07-04T12:30:46.029Z,44.49
2018-07-04T12:31:45.988Z,44.49
2018-07-04T12:32:45.948Z,43.71
2018-07-04T12:33:45.915Z,45.28
2018-07-04T12:34:45.899Z,44.49
2018-07-04T12:35:45.833Z,44.10
2018-07-04T12:36:45.792Z,43.52
2018-07-04T12:37:45.751Z,41.57
2018-07-04T12:38:45.714Z,41.57
2018-07-04T12:39:45.697Z,42.45
2018-07-04T12:40:45.634Z,42.45
2018-07-04T12:41:45.593Z,40.89
2018-07-04T12:42:45.559Z,40.13
2018-07-04T12:43:45.565Z,40.42
2018-07-04T12:44:45.502Z,40.42
2018-07-04T12:45:45.445Z,41.69
2018-07-04T12:46:45.402Z,42.47
2018-07-04T12:47:45.358Z,41.11
2018-07-04T12:48:45.322Z,41.89
2018-07-04T12:49:45.376Z,46.27
2018-07-04T12:50:45.244Z,41.30
2018-07-04T12:51:45.227Z,41.60